Teague, TX (75860)

5:21 PM CST on December 06, 2016 (GMT -0600)
WADE RANCH LIMESTONE COUNTY TX | | Change Station

Elev 440 ft 31.56 °N, 96.43 °W | Updated 11 seconds ago

Overcast
Overcast
51.3 °F
Feels Like 51.3 °F
N
0.0
Wind Variable Wind from NNW
Gusts 0.0 mph

Today
High -- | Low -- °F
--% Chance of Precip.
Yesterday
High -- | Low -- °F
Precip. -- in
Pressure 30.03 in
Visibility 10.0 miles
Clouds Overcast 3400 ft
Dew Point 48 °F
Humidity 90%
Rainfall 0.00 in
Snow Depth Not available.
7:11 AM 5:21 PM
Waxing Crescent, 46% visible
METAR KLXY 062315Z AUTO 32006KT 10SM OVC034 10/07 A3003 RMK AO2 T01020067
Pressure 30.03 in
Visibility 10.0 miles
Clouds Overcast 3400 ft
Dew Point 48 °F
Humidity 90%
Rainfall 0.00 in
Snow Depth Not available.
7:11 AM 5:21 PM
Waxing Crescent, 46% visible
METAR KLXY 062315Z AUTO 32006KT 10SM OVC034 10/07 A3003 RMK AO2 T01020067

10-Day Weather Forecast

Almanac

Astronomy

Dec. 06, 2016 Rise Set
Actual Time
Civil Twilight
Nautical Twilight
Astronomical Twilight
Moon
Length of Visible Light
Length of Day
Tomorrow will be .
, % of the Moon is Illuminated

Today's Extremes

State Highs State Lows

Community

WunderPhotos

Upload Photos

1,956,044 photos uploaded!

WunderBlog® & News

Nearby

Air Quality

  Air Quality AQ Index Pollutant
Not available.

Snow Depth

Station Depth Elevation

Earthquake Activity

City Distance Mag. Time & Date
Minimum magnitude displayed is 2.5.

Coastal Water Temperatures

Place Temperature

Stations

Nearby Weather Stations

Station Location Temp. Windchill Dew Point Humidity Wind Precip. Elev Updated Type
                   

Watches & Warnings

There are currently no watches in effect.